SCIA weather

Isla Apiao Airport
Isla Apiao, Los Lagos Region, Chile

Public forecast

Using degrees Celsius for public forecast. Weather courtesy of forecast.io.

Closest aviation weather report (METAR) to Isla Apiao Airport

Closest report is Mocopulli Airport, 27.2 nm (50.4 km) NW. Retrieved 2019/10/18 02:00 UTC (45 minutes ago):

SCPQ 180200Z AUTO 18007KT 4900 NCD 07/04 Q1027

Closest aviation forecast (TAF) to Isla Apiao Airport

Forecast is more than 12 hours old.

Closest forecast is Mocopulli Airport, 27.2 nm (50.4 km) NW. Retrieved 2019/10/17 12:00 UTC (15 hours ago):

TAF SCPQ 171020Z 1712/1724 34008KT 9999 BKN030 TN08/1712Z TX13/1718Z TEMPO 1717/1721 VRB03KT 8000 -SHRA OVC020